North Dighton, Massachusetts
Current Conditions -  °F | °C
As of 2:52 PM on Thursday 30 Oct 2014 (Local Time) from KTAN Reporting Station
Few Clouds Few Clouds  
Wind Chill: 61°   Ceiling: Unl
Heat Index: 61°   Visibility: 10mi
Dew Point: 33°   Wind: 9mph
Humidity: 35%   Direction: 260°W
Pressure: 29.9"   Gusts: NA
Location:  41.86°N, 71.12°W
Report Text: KTAN 301852Z AUTO 26008KT 10SM FEW060 16/01 A2990 RMK AO2 SLP126 T01610006
Loading
Personal Weather Stations






























Interactive Weather Map
Tropical Storm Tracking
New forecast layout! Learn more

10-Day Weather Forecast

Advertisements
Track Severe Weather on mobile